Boncath, United Kingdom
Current Conditions -  °F | °C
As of 11:50 AM on Saturday 25 Oct 2014 (Local Time) from EGOP Reporting Station
Broken Clouds Broken Clouds  
Wind Chill: 57°   Ceiling: 4800
Heat Index: 57°   Visibility: 6mi
Dew Point: 50°   Wind: 32mph
Humidity: 77%   Direction: 240°WSW
Pressure: 30.03"   Gusts: NA
Location:  52.02°N, 4.58°W
Report Text: EGOP 251050Z AUTO 24028KT 9999 // FEW029/// BKN048/// 14/10 Q1017
Loading
Personal Weather Stations






























Interactive Weather Map
Tropical Storm Tracking
New forecast layout! Learn more

10-Day Weather Forecast

Advertisements
Track Severe Weather on mobile